Worthington, MO

3:21 PM CST on November 26, 2014 (GMT -0600)
Ottumwa Industrial | Change Station
CLOSE
Current Station
Airport
Location: Ottumwa,
Elevation: 843 ft
Nearby Weather Stations

Elev 843 ft 41.11 °N, 92.45 °W | Updated 28 minutes ago

Overcast
Overcast
30 °F
Feels Like 20 °F
N
14
Wind Variable Wind from ENE

Today
High -- | Low -- °F
--% Chance of Precip.
Yesterday
High -- | Low -- °F
Precip. -- in
7:09 AM 4:46 PM
Waxing Crescent, 22% visible
Pressure 30.03 in
Visibility 1.2 miles
Clouds Overcast 600 ft
Windchill 20 °F
Dew Point 28 °F
Humidity 92%
Rainfall 0.03 in
Snow Depth Not available.
UV 0 out of 12
Pollen .10 out of 12
Air Quality Not available.
Flu Activity Not available.
METAR KOTM 262053Z AUTO 07012KT 1 1/4SM -SN BR OVC006 M01/M02 A3000 RMK AO2 CIG 004V009 SLP169 P0000 60001 T10111022 53022

More Conditions Fewer Conditions

Pressure 30.03 in
Visibility 1.2 miles
Clouds Overcast 600 ft
Windchill 20 °F
Dew Point 28 °F
Humidity 92%
Rainfall 0.03 in
Snow Depth Not available.
UV 0 out of 12
Pollen .10 out of 12
Air Quality Not available.
Flu Activity Not available.
METAR KOTM 262053Z AUTO 07012KT 1 1/4SM -SN BR OVC006 M01/M02 A3000 RMK AO2 CIG 004V009 SLP169 P0000 60001 T10111022 53022

More Conditions Fewer Conditions

10-Day Weather Forecast

Almanac

Astronomy

Nov. 26, 2014 Rise Set
Actual Time
Civil Twilight
Nautical Twilight
Astronomical Twilight
Moon
Length of Visible Light
Length of Day
Tomorrow will be .
, % of the Moon is Illuminated

Today's Extremes

State Highs State Lows

Community

WunderPhotos

Upload Photos

1,773,872 photos uploaded!

WunderBlogs® & News

Nearby

Air Quality

  Air Quality AQ Index Pollutant
Not available.

Snow Depth

Station Depth Elevation

Earthquake Activity

City Distance Mag. Time & Date
Minimum magnitude displayed is 2.5.

Coastal Water Temperatures

Place Temperature

Nearby Weather Stations